createdAt,value
2019-05-25T00:01:49.869Z,14.20
2019-05-25T00:04:16.825Z,14.17
2019-05-25T00:06:43.777Z,14.14
2019-05-25T00:09:10.750Z,14.19
2019-05-25T00:11:37.707Z,14.17
2019-05-25T00:14:04.685Z,14.18
2019-05-25T00:16:31.643Z,14.22
2019-05-25T00:18:58.594Z,14.18
2019-05-25T00:21:25.579Z,13.98
2019-05-25T00:23:52.575Z,13.99
2019-05-25T00:26:19.552Z,13.97
2019-05-25T00:28:46.520Z,13.87
2019-05-25T00:31:13.467Z,13.83
2019-05-25T00:33:40.402Z,13.89
2019-05-25T00:36:07.374Z,13.88
2019-05-25T00:38:34.335Z,13.75
2019-05-25T00:41:01.319Z,13.76
2019-05-25T00:43:28.288Z,13.80
2019-05-25T00:45:55.236Z,13.76
2019-05-25T00:48:22.192Z,13.73
2019-05-25T00:50:49.186Z,13.77
2019-05-25T00:53:16.128Z,13.77
2019-05-25T00:55:43.074Z,13.61
2019-05-25T00:58:10.079Z,13.61
2019-05-25T01:00:37.134Z,13.70
2019-05-25T01:03:04.381Z,13.63
2019-05-25T01:05:31.350Z,13.70
2019-05-25T01:07:58.313Z,13.71
2019-05-25T01:10:25.257Z,13.61
2019-05-25T01:12:52.211Z,13.58
2019-05-25T01:15:19.468Z,13.60
2019-05-25T01:17:46.420Z,13.69
2019-05-25T01:20:14.301Z,13.63
2019-05-25T01:22:41.264Z,13.61
2019-05-25T01:25:08.678Z,13.70
2019-05-25T01:27:35.687Z,13.60
2019-05-25T01:30:03.886Z,13.62
2019-05-25T01:32:30.839Z,13.65
2019-05-25T01:34:57.841Z,13.50
2019-05-25T01:37:24.812Z,13.52
2019-05-25T01:39:51.761Z,13.51
2019-05-25T01:42:18.793Z,13.57
2019-05-25T01:44:45.764Z,13.50
2019-05-25T01:47:12.730Z,13.49
2019-05-25T01:49:39.700Z,13.56
2019-05-25T01:52:06.654Z,13.42
2019-05-25T01:54:33.616Z,13.52
2019-05-25T01:57:00.592Z,13.51
2019-05-25T01:59:27.545Z,13.38
2019-05-25T02:01:54.508Z,13.41
2019-05-25T02:04:21.497Z,13.36
2019-05-25T02:06:48.453Z,13.33
2019-05-25T02:09:15.391Z,13.34
2019-05-25T02:11:42.353Z,13.21
2019-05-25T02:14:09.329Z,13.20
2019-05-25T02:16:36.311Z,13.31
2019-05-25T02:19:03.378Z,13.40
2019-05-25T02:21:30.349Z,13.45
2019-05-25T02:23:57.330Z,13.51
2019-05-25T02:26:24.357Z,13.34
2019-05-25T02:28:51.344Z,13.40
2019-05-25T02:31:18.297Z,13.33
2019-05-25T02:33:45.256Z,13.40
2019-05-25T02:36:12.209Z,13.40
2019-05-25T02:38:39.217Z,13.39
2019-05-25T02:41:06.146Z,13.32
2019-05-25T02:43:33.228Z,13.29
2019-05-25T02:46:00.188Z,13.31
2019-05-25T02:48:27.131Z,13.34
2019-05-25T02:50:54.094Z,13.31
2019-05-25T02:53:21.058Z,13.39
2019-05-25T02:55:48.032Z,13.49
2019-05-25T02:58:14.981Z,13.52
2019-05-25T03:00:41.929Z,13.58
2019-05-25T03:03:08.903Z,13.63
2019-05-25T03:05:35.862Z,13.61
2019-05-25T03:08:02.913Z,13.68
2019-05-25T03:10:30.304Z,13.67
2019-05-25T03:13:00.131Z,13.71
2019-05-25T03:15:27.082Z,13.72
2019-05-25T03:17:54.057Z,13.68
2019-05-25T03:20:21.003Z,13.70
2019-05-25T03:22:47.977Z,13.76
2019-05-25T03:25:14.929Z,13.76
2019-05-25T03:27:41.945Z,13.70
2019-05-25T03:30:09.484Z,13.70
2019-05-25T03:32:36.489Z,13.72
2019-05-25T03:35:04.126Z,13.69
2019-05-25T03:37:31.082Z,13.63
2019-05-25T03:39:58.040Z,13.69
2019-05-25T03:42:24.979Z,13.60
2019-05-25T03:44:51.986Z,13.71
2019-05-25T03:47:18.932Z,13.76
2019-05-25T03:49:45.891Z,13.58
2019-05-25T03:52:12.876Z,13.59
2019-05-25T03:54:39.832Z,13.57
2019-05-25T03:57:06.800Z,13.62
2019-05-25T03:59:33.750Z,13.43
2019-05-25T04:02:00.723Z,13.40
2019-05-25T04:04:27.687Z,13.28
2019-05-25T04:06:54.636Z,13.27
2019-05-25T04:09:21.610Z,13.27
2019-05-25T04:11:48.596Z,13.36
2019-05-25T04:14:15.561Z,13.45
2019-05-25T04:16:42.559Z,13.53
2019-05-25T04:19:09.515Z,13.44
2019-05-25T04:21:36.457Z,13.31
2019-05-25T04:24:03.732Z,13.37
2019-05-25T04:26:30.726Z,13.30
2019-05-25T04:28:57.677Z,13.41
2019-05-25T04:31:24.665Z,13.36
2019-05-25T04:33:51.606Z,13.39
2019-05-25T04:36:18.563Z,13.40
2019-05-25T04:38:45.543Z,13.29
2019-05-25T04:41:12.497Z,13.39
2019-05-25T04:43:39.486Z,13.48
2019-05-25T04:46:06.459Z,13.52
2019-05-25T04:48:33.434Z,13.42
2019-05-25T04:51:00.392Z,13.54
2019-05-25T04:53:27.353Z,13.60
2019-05-25T04:55:54.307Z,13.60
2019-05-25T04:58:21.260Z,13.67
2019-05-25T05:00:48.221Z,13.73
2019-05-25T05:03:15.170Z,13.68
2019-05-25T05:05:43.016Z,13.63
2019-05-25T05:08:09.976Z,13.30
2019-05-25T05:10:36.935Z,13.10
2019-05-25T05:13:03.914Z,12.96
2019-05-25T05:15:30.883Z,12.83
2019-05-25T05:17:57.811Z,12.89
2019-05-25T05:20:24.797Z,12.97
2019-05-25T05:22:51.772Z,13.04
2019-05-25T05:25:18.783Z,12.99
2019-05-25T05:27:45.786Z,12.95
2019-05-25T05:30:13.072Z,12.89
2019-05-25T05:32:40.020Z,12.65
2019-05-25T05:35:07.461Z,12.64
2019-05-25T05:37:35.292Z,12.66
2019-05-25T05:40:02.246Z,12.94
2019-05-25T05:42:32.052Z,13.01
2019-05-25T05:45:00.821Z,13.29
2019-05-25T05:47:29.979Z,13.11
2019-05-25T05:50:01.036Z,13.32
2019-05-25T05:52:31.618Z,13.37
2019-05-25T05:55:01.186Z,13.36
2019-05-25T05:57:28.149Z,13.29
2019-05-25T05:59:55.091Z,13.35
2019-05-25T06:02:22.061Z,13.55
2019-05-25T06:04:49.021Z,13.71
2019-05-25T06:07:15.986Z,13.87
2019-05-25T06:09:42.932Z,13.98
2019-05-25T06:12:09.912Z,13.98
2019-05-25T06:14:36.856Z,14.17
2019-05-25T06:17:03.806Z,14.22
2019-05-25T06:19:30.800Z,14.29
2019-05-25T06:21:57.753Z,14.21
2019-05-25T06:24:24.736Z,14.20
2019-05-25T06:26:51.889Z,14.14
2019-05-25T06:29:18.843Z,14.18
2019-05-25T06:31:45.820Z,14.13
2019-05-25T06:34:12.898Z,14.11
2019-05-25T06:36:39.866Z,14.10
2019-05-25T06:39:10.099Z,14.20
2019-05-25T06:41:37.101Z,14.11
2019-05-25T06:44:04.220Z,13.94
2019-05-25T06:46:31.176Z,13.90
2019-05-25T06:48:58.195Z,14.01
2019-05-25T06:51:25.240Z,14.07
2019-05-25T06:53:52.207Z,13.62
2019-05-25T06:56:19.183Z,13.42
2019-05-25T06:58:46.196Z,13.50
2019-05-25T07:01:13.399Z,13.47
2019-05-25T07:03:40.399Z,13.50
2019-05-25T07:06:07.358Z,13.40
2019-05-25T07:08:34.315Z,13.48
2019-05-25T07:11:01.310Z,13.41
2019-05-25T07:13:28.723Z,13.52
2019-05-25T07:15:55.745Z,13.37
2019-05-25T07:18:22.717Z,13.57
2019-05-25T07:20:49.768Z,13.64
2019-05-25T07:23:17.569Z,13.80
2019-05-25T07:25:44.575Z,13.88
2019-05-25T07:28:11.624Z,14.00
2019-05-25T07:30:38.754Z,14.01
2019-05-25T07:33:05.693Z,13.85
2019-05-25T07:35:32.658Z,13.96
2019-05-25T07:37:59.650Z,14.06
2019-05-25T07:40:26.605Z,14.13
2019-05-25T07:42:53.547Z,14.13
2019-05-25T07:45:20.548Z,14.22
2019-05-25T07:47:47.615Z,14.37
2019-05-25T07:50:15.117Z,14.50
2019-05-25T07:52:44.348Z,14.49
2019-05-25T07:55:11.402Z,14.36
2019-05-25T07:57:38.352Z,14.39
2019-05-25T08:00:05.911Z,14.44
2019-05-25T08:02:32.888Z,14.55
2019-05-25T08:04:59.876Z,14.48
2019-05-25T08:07:26.886Z,14.53
2019-05-25T08:09:53.862Z,14.31
2019-05-25T08:12:20.864Z,14.37
2019-05-25T08:14:47.871Z,14.55
2019-05-25T08:17:14.848Z,14.65
2019-05-25T08:19:41.848Z,14.64
2019-05-25T08:22:10.178Z,14.83
2019-05-25T08:24:37.232Z,14.75
2019-05-25T08:27:04.247Z,14.66
2019-05-25T08:29:31.217Z,14.78
2019-05-25T08:31:58.184Z,14.87
2019-05-25T08:34:25.183Z,14.88
2019-05-25T08:36:52.168Z,14.84
2019-05-25T08:39:19.122Z,14.79
2019-05-25T08:41:46.195Z,14.68
2019-05-25T08:44:13.133Z,14.78
2019-05-25T08:46:40.095Z,14.77
2019-05-25T08:49:07.046Z,14.81
2019-05-25T08:51:34.077Z,14.81
2019-05-25T08:54:01.052Z,14.63
2019-05-25T08:56:28.021Z,14.59
2019-05-25T08:58:55.730Z,14.68
2019-05-25T09:01:22.749Z,14.50
2019-05-25T09:03:49.698Z,14.52
2019-05-25T09:06:16.644Z,14.69
2019-05-25T09:08:43.599Z,14.54
2019-05-25T09:11:10.556Z,14.74
2019-05-25T09:13:37.537Z,14.83
2019-05-25T09:16:04.591Z,14.89
2019-05-25T09:18:31.567Z,14.82
2019-05-25T09:20:58.534Z,14.88
2019-05-25T09:23:25.548Z,14.90
2019-05-25T09:25:52.585Z,14.83
2019-05-25T09:28:19.575Z,14.64
2019-05-25T09:30:46.535Z,14.59
2019-05-25T09:33:13.493Z,14.78
2019-05-25T09:35:40.448Z,14.96
2019-05-25T09:38:07.412Z,15.00
2019-05-25T09:40:34.370Z,14.92
2019-05-25T09:43:01.375Z,14.95
2019-05-25T09:45:28.326Z,14.79
2019-05-25T09:47:55.279Z,15.01
2019-05-25T09:50:22.244Z,15.02
2019-05-25T09:52:49.212Z,15.23
2019-05-25T09:55:16.395Z,15.22
2019-05-25T09:57:43.449Z,15.20
2019-05-25T10:00:11.208Z,15.19
2019-05-25T10:02:38.260Z,15.24
2019-05-25T10:05:05.498Z,15.34
2019-05-25T10:07:32.475Z,15.44
2019-05-25T10:09:59.445Z,15.41
2019-05-25T10:12:26.458Z,15.40
2019-05-25T10:14:53.416Z,15.51
2019-05-25T10:17:20.399Z,15.46
2019-05-25T10:19:47.426Z,15.47
2019-05-25T10:22:14.391Z,15.40
2019-05-25T10:24:41.361Z,15.28
2019-05-25T10:27:08.362Z,15.17
2019-05-25T10:29:37.699Z,15.15
2019-05-25T10:32:05.099Z,15.31
2019-05-25T10:34:32.076Z,15.50
2019-05-25T10:36:59.153Z,15.46
2019-05-25T10:39:26.480Z,15.46
2019-05-25T10:41:53.462Z,15.47
2019-05-25T10:44:20.450Z,15.39
2019-05-25T10:46:47.486Z,15.38
2019-05-25T10:49:17.531Z,15.34
2019-05-25T10:51:44.481Z,15.44
2019-05-25T10:54:11.499Z,15.46
2019-05-25T10:56:38.451Z,15.49
2019-05-25T10:59:12.031Z,15.58
2019-05-25T11:01:40.213Z,15.14
2019-05-25T11:04:07.139Z,15.24
2019-05-25T11:06:35.013Z,15.11
2019-05-25T11:09:02.626Z,15.33
2019-05-25T11:11:29.564Z,15.28
2019-05-25T11:13:56.565Z,15.34
2019-05-25T11:16:23.557Z,15.42
2019-05-25T11:18:50.485Z,15.25
2019-05-25T11:21:17.485Z,15.34
2019-05-25T11:23:44.447Z,15.34
2019-05-25T11:26:11.475Z,15.29
2019-05-25T11:28:38.504Z,15.40
2019-05-25T11:31:08.580Z,15.24
2019-05-25T11:33:36.481Z,15.22
2019-05-25T11:36:03.644Z,15.25
2019-05-25T11:38:30.627Z,15.44
2019-05-25T11:40:57.566Z,15.51
2019-05-25T11:43:24.532Z,15.41
2019-05-25T11:45:51.508Z,15.54
2019-05-25T11:48:18.457Z,15.63
2019-05-25T11:50:45.400Z,15.77
2019-05-25T11:53:12.378Z,15.74
2019-05-25T11:55:39.444Z,15.76
2019-05-25T11:58:06.428Z,15.76
2019-05-25T12:00:33.440Z,15.94
2019-05-25T12:03:00.411Z,16.01
2019-05-25T12:05:27.402Z,15.75
2019-05-25T12:07:54.353Z,15.78
2019-05-25T12:10:22.163Z,15.86
2019-05-25T12:12:49.175Z,15.91
2019-05-25T12:15:16.311Z,15.91
2019-05-25T12:17:43.343Z,15.90
2019-05-25T12:20:11.018Z,16.09
2019-05-25T12:22:37.970Z,16.16
2019-05-25T12:25:05.390Z,16.05
2019-05-25T12:27:32.351Z,15.98
2019-05-25T12:29:59.368Z,16.12
2019-05-25T12:32:26.332Z,16.14
2019-05-25T12:34:53.317Z,16.25
2019-05-25T12:37:20.292Z,16.32
2019-05-25T12:39:47.242Z,16.28
2019-05-25T12:42:14.234Z,16.38
2019-05-25T12:44:41.231Z,16.14
2019-05-25T12:47:08.301Z,16.34
2019-05-25T12:49:50.175Z,16.38
2019-05-25T12:52:04.155Z,16.42
2019-05-25T12:54:31.128Z,16.63
2019-05-25T12:56:58.157Z,16.41
2019-05-25T12:59:25.196Z,16.56
2019-05-25T13:01:52.232Z,16.32
2019-05-25T13:04:19.227Z,16.22
2019-05-25T13:06:46.180Z,16.17
2019-05-25T13:09:13.137Z,16.33
2019-05-25T13:11:40.117Z,16.17
2019-05-25T13:14:14.447Z,16.28
2019-05-25T13:16:35.957Z,16.32
2019-05-25T13:19:02.934Z,16.46
2019-05-25T13:21:29.938Z,16.44
2019-05-25T13:23:56.942Z,16.50
2019-05-25T13:26:23.928Z,16.53
2019-05-25T13:28:51.025Z,16.27
2019-05-25T13:31:18.015Z,16.04
2019-05-25T13:33:44.971Z,16.01
2019-05-25T13:36:11.969Z,16.18
2019-05-25T13:38:38.947Z,16.20
2019-05-25T13:41:05.929Z,16.08
2019-05-25T13:43:32.892Z,16.12
2019-05-25T13:45:59.853Z,16.08
2019-05-25T13:48:26.918Z,16.22
2019-05-25T13:50:53.893Z,16.32
2019-05-25T13:53:20.873Z,16.32
2019-05-25T13:55:47.853Z,16.39
2019-05-25T13:58:14.834Z,16.35
2019-05-25T14:00:41.903Z,16.37
2019-05-25T14:03:08.921Z,16.18
2019-05-25T14:05:35.893Z,16.06
2019-05-25T14:08:02.906Z,15.78
2019-05-25T14:10:29.907Z,15.95
2019-05-25T14:12:56.905Z,16.08
2019-05-25T14:15:23.930Z,16.10
2019-05-25T14:17:51.045Z,16.05
2019-05-25T14:20:18.145Z,16.16
2019-05-25T14:22:45.175Z,16.16
2019-05-25T14:25:12.236Z,16.21
2019-05-25T14:27:39.283Z,16.39
2019-05-25T14:30:06.795Z,16.29
2019-05-25T14:32:33.845Z,16.39
2019-05-25T14:35:00.834Z,16.30
2019-05-25T14:37:27.832Z,16.54
2019-05-25T14:39:54.837Z,16.53
2019-05-25T14:42:21.820Z,16.41
2019-05-25T14:44:48.761Z,16.37
2019-05-25T14:47:15.725Z,16.48
2019-05-25T14:49:42.718Z,16.59
2019-05-25T14:52:09.690Z,16.62
2019-05-25T14:54:36.727Z,16.69
2019-05-25T14:57:03.665Z,16.78
2019-05-25T14:59:30.660Z,16.87
2019-05-25T15:02:02.569Z,16.95
2019-05-25T15:04:26.521Z,16.84
2019-05-25T15:06:53.490Z,16.37
2019-05-25T15:09:20.472Z,16.10
2019-05-25T15:11:47.435Z,16.43
2019-05-25T15:14:14.391Z,16.61
2019-05-25T15:16:41.471Z,16.71
2019-05-25T15:19:08.462Z,16.80
2019-05-25T15:23:33.460Z,16.71
2019-05-25T15:26:33.465Z,16.79
2019-05-25T15:29:00.118Z,16.72
2019-05-25T15:31:26.726Z,16.66
2019-05-25T15:33:53.258Z,16.53
2019-05-25T15:36:19.812Z,16.69
2019-05-25T15:38:46.337Z,16.52
2019-05-25T15:41:12.894Z,16.45
2019-05-25T15:43:39.491Z,16.30
2019-05-25T15:46:06.058Z,16.37
2019-05-25T15:48:32.557Z,16.27
2019-05-25T15:50:59.094Z,16.44
2019-05-25T15:53:25.750Z,16.33
2019-05-25T15:55:52.349Z,16.35
2019-05-25T15:58:18.959Z,16.50
2019-05-25T16:00:46.435Z,16.38
2019-05-25T16:03:13.399Z,16.42
2019-05-25T16:05:39.903Z,16.28
2019-05-25T16:08:06.451Z,16.21
2019-05-25T16:10:33.057Z,16.28
2019-05-25T16:12:59.581Z,16.11
2019-05-25T16:15:26.519Z,16.15
2019-05-25T16:17:53.150Z,16.02
2019-05-25T16:20:21.198Z,16.09
2019-05-25T16:22:47.727Z,16.11
2019-05-25T16:25:14.388Z,16.09
2019-05-25T16:27:40.937Z,16.02
2019-05-25T16:30:07.558Z,15.96
2019-05-25T16:32:34.058Z,15.97
2019-05-25T16:35:00.630Z,15.99
2019-05-25T16:37:27.244Z,15.88
2019-05-25T16:39:53.870Z,15.63
2019-05-25T16:42:20.523Z,15.69
2019-05-25T16:44:47.124Z,15.63
2019-05-25T16:47:13.638Z,15.76
2019-05-25T16:49:40.273Z,15.55
2019-05-25T16:52:06.942Z,15.58
2019-05-25T16:54:33.550Z,15.39
2019-05-25T16:57:00.080Z,15.26
2019-05-25T16:59:26.665Z,15.44
2019-05-25T17:01:53.211Z,15.42
2019-05-25T17:04:19.839Z,15.28
2019-05-25T17:06:46.365Z,15.45
2019-05-25T17:09:12.973Z,15.41
2019-05-25T17:11:39.599Z,15.24
2019-05-25T17:14:06.218Z,15.26
2019-05-25T17:16:32.903Z,15.29
2019-05-25T17:18:59.410Z,15.31
2019-05-25T17:21:25.974Z,15.32
2019-05-25T17:23:52.505Z,15.35
2019-05-25T17:26:19.082Z,15.22
2019-05-25T17:28:45.686Z,15.01
2019-05-25T17:31:12.261Z,15.04
2019-05-25T17:33:46.103Z,15.04
2019-05-25T17:36:07.178Z,15.10
2019-05-25T17:38:33.706Z,15.17
2019-05-25T17:41:00.326Z,15.13
2019-05-25T17:43:26.869Z,15.07
2019-05-25T17:45:53.421Z,15.15
2019-05-25T17:48:19.926Z,15.20
2019-05-25T17:50:46.519Z,15.24
2019-05-25T17:53:13.047Z,15.26
2019-05-25T17:55:39.676Z,15.28
2019-05-25T17:58:06.272Z,15.26
2019-05-25T18:00:37.426Z,15.28
2019-05-25T18:03:04.069Z,15.24
2019-05-25T18:05:30.653Z,15.17
2019-05-25T18:07:57.195Z,15.10
2019-05-25T18:10:23.709Z,15.11
2019-05-25T18:12:50.354Z,15.18
2019-05-25T18:15:16.917Z,15.02
2019-05-25T18:17:43.450Z,15.07
2019-05-25T18:20:10.175Z,15.12
2019-05-25T18:22:36.811Z,15.07
2019-05-25T18:25:03.718Z,15.08
2019-05-25T18:27:30.249Z,15.05
2019-05-25T18:29:56.767Z,15.04
2019-05-25T18:32:23.290Z,15.05
2019-05-25T18:34:49.819Z,15.02
2019-05-25T18:37:16.424Z,15.03
2019-05-25T18:39:43.063Z,15.05
2019-05-25T18:42:09.574Z,15.04
2019-05-25T18:44:36.128Z,15.05
2019-05-25T18:47:02.728Z,15.01
2019-05-25T18:49:29.356Z,14.96
2019-05-25T18:51:55.998Z,14.98
2019-05-25T18:54:22.612Z,14.93
2019-05-25T18:56:49.213Z,14.98
2019-05-25T18:59:15.867Z,14.98
2019-05-25T19:01:42.514Z,14.97
2019-05-25T19:04:09.071Z,14.98
2019-05-25T19:06:35.682Z,14.92
2019-05-25T19:09:02.203Z,14.97
2019-05-25T19:11:28.742Z,14.97
2019-05-25T19:13:55.293Z,15.00
2019-05-25T19:16:21.901Z,15.04
2019-05-25T19:18:48.430Z,15.06
2019-05-25T19:21:15.065Z,15.08
2019-05-25T19:23:41.609Z,15.08
2019-05-25T19:26:08.244Z,15.08
2019-05-25T19:28:34.921Z,15.07
2019-05-25T19:31:01.562Z,15.06
2019-05-25T19:33:28.199Z,15.04
2019-05-25T19:35:54.804Z,15.01
2019-05-25T19:38:21.342Z,14.99
2019-05-25T19:40:47.871Z,14.97
2019-05-25T19:43:14.502Z,14.97
2019-05-25T19:45:41.243Z,14.93
2019-05-25T19:48:07.837Z,14.90
2019-05-25T19:50:34.450Z,14.86
2019-05-25T19:53:00.983Z,14.77
2019-05-25T19:55:27.545Z,14.70
2019-05-25T19:57:54.054Z,14.68
2019-05-25T20:00:20.667Z,14.64
2019-05-25T20:02:47.199Z,14.61
2019-05-25T20:05:16.815Z,14.62
2019-05-25T20:07:42.473Z,14.59
2019-05-25T20:10:09.790Z,14.58
2019-05-25T20:12:36.642Z,14.56
2019-05-25T20:15:03.362Z,14.50
2019-05-25T20:17:29.919Z,14.49
2019-05-25T20:19:56.588Z,14.44
2019-05-25T20:22:23.199Z,14.43
2019-05-25T20:24:49.823Z,14.40
2019-05-25T20:27:16.444Z,14.37
2019-05-25T20:29:42.976Z,14.33
2019-05-25T20:32:09.527Z,14.27
2019-05-25T20:34:36.095Z,14.25
2019-05-25T20:37:02.702Z,14.21
2019-05-25T20:39:29.253Z,14.15
2019-05-25T20:41:55.864Z,14.13
2019-05-25T20:44:22.379Z,14.08
2019-05-25T20:46:48.922Z,14.03
2019-05-25T20:49:15.428Z,14.01
2019-05-25T20:51:42.058Z,13.96
2019-05-25T20:54:08.672Z,13.94
2019-05-25T20:56:35.185Z,13.93
2019-05-25T20:59:01.849Z,13.88
2019-05-25T21:01:28.353Z,13.83
2019-05-25T21:03:54.878Z,13.82
2019-05-25T21:06:21.544Z,13.78
2019-05-25T21:08:48.078Z,13.74
2019-05-25T21:11:14.701Z,13.72
2019-05-25T21:13:41.235Z,13.69
2019-05-25T21:16:07.754Z,13.66
2019-05-25T21:18:34.314Z,13.61
2019-05-25T21:21:00.923Z,13.58
2019-05-25T21:23:27.445Z,13.54
2019-05-25T21:25:54.062Z,13.52
2019-05-25T21:28:20.725Z,13.49
2019-05-25T21:30:47.240Z,13.46
2019-05-25T21:33:13.859Z,13.44
2019-05-25T21:35:40.495Z,13.42
2019-05-25T21:38:07.103Z,13.41
2019-05-25T21:40:33.617Z,13.39
2019-05-25T21:43:00.294Z,13.38
2019-05-25T21:45:26.932Z,13.37
2019-05-25T21:47:56.001Z,13.36
2019-05-25T21:50:21.940Z,13.35
2019-05-25T21:52:48.453Z,13.34
2019-05-25T21:55:14.970Z,13.32
2019-05-25T21:57:41.511Z,13.30
2019-05-25T22:00:10.104Z,13.29
2019-05-25T22:02:36.733Z,13.26
2019-05-25T22:05:03.833Z,13.23
2019-05-25T22:07:30.441Z,13.19
2019-05-25T22:09:56.993Z,13.18
2019-05-25T22:12:23.526Z,13.17
2019-05-25T22:14:50.198Z,13.15
2019-05-25T22:17:16.810Z,13.13
2019-05-25T22:19:43.336Z,13.11
2019-05-25T22:22:09.969Z,13.11
2019-05-25T22:24:36.561Z,13.08
2019-05-25T22:27:03.238Z,13.05
2019-05-25T22:29:29.768Z,13.04
2019-05-25T22:31:56.459Z,13.01
2019-05-25T22:34:23.060Z,12.98
2019-05-25T22:36:49.586Z,12.96
2019-05-25T22:39:16.125Z,12.93
2019-05-25T22:41:42.773Z,12.92
2019-05-25T22:44:09.394Z,12.88
2019-05-25T22:46:36.018Z,12.85
2019-05-25T22:49:02.682Z,12.82
2019-05-25T22:51:29.223Z,12.78
2019-05-25T22:53:55.866Z,12.76
2019-05-25T22:56:22.476Z,12.73
2019-05-25T22:58:49.080Z,12.71
2019-05-25T23:01:15.631Z,12.68
2019-05-25T23:03:42.251Z,12.64
2019-05-25T23:06:08.779Z,12.61
2019-05-25T23:08:35.409Z,12.58
2019-05-25T23:11:02.018Z,12.56
2019-05-25T23:13:28.555Z,12.54
2019-05-25T23:15:55.094Z,12.50
2019-05-25T23:18:21.720Z,12.50
2019-05-25T23:20:48.339Z,12.51
2019-05-25T23:23:14.860Z,12.50
2019-05-25T23:25:41.362Z,12.49
2019-05-25T23:28:07.883Z,12.50
2019-05-25T23:30:34.543Z,12.50
2019-05-25T23:33:01.170Z,12.49
2019-05-25T23:35:27.707Z,12.47
2019-05-25T23:37:54.303Z,12.47
2019-05-25T23:40:20.817Z,12.47
2019-05-25T23:42:47.382Z,12.49
2019-05-25T23:45:14.303Z,12.50
2019-05-25T23:47:41.001Z,12.49
2019-05-25T23:50:08.178Z,12.48
2019-05-25T23:52:34.801Z,12.49
2019-05-25T23:55:04.767Z,12.46
2019-05-25T23:57:29.848Z,12.47
2019-05-25T23:59:56.358Z,12.48
